createdAt,value
2018-07-15T00:01:55.408Z,4.73
2018-07-15T00:04:29.625Z,4.53
2018-07-15T00:07:04.829Z,5.07
2018-07-15T00:09:39.024Z,5.40
2018-07-15T00:12:12.682Z,6.10
2018-07-15T00:14:46.945Z,5.53
2018-07-15T00:17:20.625Z,5.03
2018-07-15T00:19:54.885Z,5.27
2018-07-15T00:22:29.053Z,5.20
2018-07-15T00:25:05.651Z,5.27
2018-07-15T00:27:39.833Z,5.60
2018-07-15T00:30:14.045Z,6.23
2018-07-15T00:32:49.272Z,5.43
2018-07-15T00:35:23.552Z,5.77
2018-07-15T00:37:57.747Z,6.33
2018-07-15T00:40:31.977Z,5.60
2018-07-15T00:43:06.173Z,5.67
2018-07-15T00:45:40.369Z,5.23
2018-07-15T00:48:14.050Z,6.20
2018-07-15T00:50:49.317Z,6.30
2018-07-15T00:53:23.026Z,6.27
2018-07-15T00:55:57.206Z,5.90
2018-07-15T00:58:31.345Z,6.83
2018-07-15T01:01:05.075Z,6.50
2018-07-15T01:03:40.272Z,6.13
2018-07-15T01:06:13.974Z,5.97
2018-07-15T01:08:47.707Z,6.03
2018-07-15T01:11:21.943Z,6.20
2018-07-15T01:13:56.105Z,6.93
2018-07-15T01:16:30.819Z,6.80
2018-07-15T01:19:05.084Z,7.80
2018-07-15T01:21:39.280Z,7.70
2018-07-15T01:24:13.513Z,6.17
2018-07-15T01:26:47.926Z,8.00
2018-07-15T01:29:22.076Z,7.03
2018-07-15T01:31:56.258Z,8.13
2018-07-15T01:34:30.480Z,7.87
2018-07-15T01:37:04.714Z,8.77
2018-07-15T01:39:38.882Z,8.60
2018-07-15T01:42:14.153Z,8.50
2018-07-15T01:44:48.507Z,8.47
2018-07-15T01:47:23.758Z,8.20
2018-07-15T01:49:58.480Z,9.13
2018-07-15T01:52:32.676Z,7.77
2018-07-15T01:55:06.886Z,7.50
2018-07-15T01:57:42.700Z,7.37
2018-07-15T02:00:17.453Z,6.72
2018-07-15T02:02:52.314Z,7.08
2018-07-15T02:05:25.964Z,6.13
2018-07-15T02:08:00.179Z,5.93
2018-07-15T02:10:35.898Z,5.70
2018-07-15T02:13:10.607Z,6.00
2018-07-15T02:15:45.288Z,6.83
2018-07-15T02:18:19.542Z,5.97
2018-07-15T02:20:54.350Z,5.97
2018-07-15T02:23:29.572Z,5.28
2018-07-15T02:26:03.847Z,6.03
2018-07-15T02:28:39.665Z,5.50
2018-07-15T02:31:14.362Z,5.55
2018-07-15T02:33:49.085Z,4.47
2018-07-15T02:36:23.318Z,4.58
2018-07-15T02:38:58.056Z,5.40
2018-07-15T02:41:32.773Z,5.58
2018-07-15T02:44:07.915Z,5.22
2018-07-15T02:46:43.669Z,4.70
2018-07-15T02:49:18.427Z,4.58
2018-07-15T02:51:53.174Z,4.45
2018-07-15T02:54:27.932Z,4.28
2018-07-15T02:57:03.671Z,4.95
2018-07-15T02:59:37.922Z,4.60
2018-07-15T03:02:12.695Z,4.60
2018-07-15T03:04:47.464Z,4.42
2018-07-15T03:07:22.158Z,4.58
2018-07-15T03:09:56.421Z,4.55
2018-07-15T03:12:31.160Z,4.50
2018-07-15T03:15:05.952Z,4.28
2018-07-15T03:17:41.678Z,4.17
2018-07-15T03:20:15.967Z,4.50
2018-07-15T03:22:50.685Z,4.20
2018-07-15T03:25:25.448Z,3.92
2018-07-15T03:27:59.674Z,4.03
2018-07-15T03:30:34.424Z,3.40
2018-07-15T03:33:09.160Z,3.47
2018-07-15T03:35:43.965Z,3.27
2018-07-15T03:38:18.728Z,2.90
2018-07-15T03:40:53.500Z,2.65
2018-07-15T03:43:28.268Z,2.33
2018-07-15T03:46:03.010Z,2.50
2018-07-15T03:48:44.718Z,2.33
2018-07-15T03:51:19.443Z,2.37
2018-07-15T03:53:54.236Z,2.50
2018-07-15T03:56:29.992Z,2.22
2018-07-15T03:59:04.715Z,2.27
2018-07-15T04:01:39.469Z,2.20
2018-07-15T04:04:14.184Z,1.87
2018-07-15T04:06:48.939Z,2.30
2018-07-15T04:09:23.178Z,2.08
2018-07-15T04:11:57.968Z,1.95
2018-07-15T04:14:32.221Z,1.90
2018-07-15T04:17:07.700Z,1.92
2018-07-15T04:19:42.438Z,2.22
2018-07-15T04:22:17.414Z,1.75
2018-07-15T04:24:52.157Z,2.00
2018-07-15T04:27:27.897Z,1.80
2018-07-15T04:30:02.624Z,1.90
2018-07-15T04:32:37.378Z,1.60
2018-07-15T04:35:12.052Z,1.67
2018-07-15T04:37:46.315Z,1.90
2018-07-15T04:40:21.336Z,2.00
2018-07-15T04:42:55.830Z,1.83
2018-07-15T04:45:30.246Z,1.90
2018-07-15T04:48:05.745Z,1.80
2018-07-15T04:50:40.139Z,1.87
2018-07-15T04:53:14.583Z,1.80
2018-07-15T04:55:48.999Z,1.97
2018-07-15T04:58:23.466Z,2.23
2018-07-15T05:00:57.899Z,2.00
2018-07-15T05:03:32.347Z,1.80
2018-07-15T05:06:06.796Z,1.70
2018-07-15T05:08:41.769Z,1.40
2018-07-15T05:11:16.237Z,1.50
2018-07-15T05:13:50.828Z,1.50
2018-07-15T05:16:25.245Z,1.30
2018-07-15T05:19:00.912Z,1.30
2018-07-15T05:21:35.277Z,1.30
2018-07-15T05:24:09.813Z,1.33
2018-07-15T05:26:45.234Z,1.00
2018-07-15T05:29:19.713Z,1.20
2018-07-15T05:31:54.137Z,1.10
2018-07-15T05:34:28.629Z,1.10
2018-07-15T05:37:03.079Z,1.10
2018-07-15T05:39:37.604Z,0.87
2018-07-15T05:42:12.048Z,0.90
2018-07-15T05:44:46.500Z,0.90
2018-07-15T05:47:20.938Z,0.70
2018-07-15T05:49:55.360Z,0.90
2018-07-15T05:52:30.818Z,0.80
2018-07-15T05:55:06.368Z,0.90
2018-07-15T05:57:40.822Z,0.80
2018-07-15T06:00:15.247Z,1.10
2018-07-15T06:02:49.748Z,0.73
2018-07-15T06:05:23.729Z,0.80
2018-07-15T06:07:58.165Z,0.70
2018-07-15T06:10:32.701Z,0.90
2018-07-15T06:13:07.313Z,0.80
2018-07-15T06:15:42.051Z,0.80
2018-07-15T06:18:16.731Z,0.75
2018-07-15T06:20:51.423Z,0.65
2018-07-15T06:23:26.180Z,0.90
2018-07-15T06:26:00.938Z,0.60
2018-07-15T06:28:35.613Z,0.57
2018-07-15T06:31:10.339Z,0.50
2018-07-15T06:33:44.756Z,0.50
2018-07-15T06:36:19.200Z,0.43
2018-07-15T06:38:53.623Z,0.40
2018-07-15T06:41:28.188Z,0.43
2018-07-15T06:44:02.627Z,0.40
2018-07-15T06:46:38.089Z,0.40
2018-07-15T06:49:13.571Z,0.47
2018-07-15T06:51:49.187Z,0.80
2018-07-15T06:54:24.641Z,0.47
2018-07-15T06:56:59.064Z,0.50
2018-07-15T06:59:33.444Z,0.60
2018-07-15T07:02:07.871Z,0.40
2018-07-15T07:04:42.569Z,0.40
2018-07-15T07:07:17.142Z,0.47
2018-07-15T07:09:52.732Z,0.47
2018-07-15T07:12:28.211Z,0.40
2018-07-15T07:15:02.623Z,0.57
2018-07-15T07:17:37.148Z,0.50
2018-07-15T07:20:11.561Z,0.70
2018-07-15T07:22:46.045Z,0.50
2018-07-15T07:25:19.958Z,0.50
2018-07-15T07:27:54.134Z,0.50
2018-07-15T07:30:28.563Z,0.70
2018-07-15T07:33:03.009Z,0.93
2018-07-15T07:35:37.434Z,0.80
2018-07-15T07:38:12.855Z,0.80
2018-07-15T07:40:49.136Z,1.00
2018-07-15T07:43:40.863Z,1.00
2018-07-15T07:46:24.820Z,0.80
2018-07-15T07:49:00.741Z,1.10
2018-07-15T07:51:36.529Z,1.00
2018-07-15T07:54:11.260Z,0.95
2018-07-15T07:56:45.984Z,1.10
2018-07-15T07:59:20.765Z,0.78
2018-07-15T08:01:55.465Z,0.90
2018-07-15T08:04:30.180Z,0.98
2018-07-15T08:07:05.069Z,0.85
2018-07-15T08:09:40.111Z,0.95
2018-07-15T08:12:14.356Z,1.02
2018-07-15T08:14:48.972Z,0.73
2018-07-15T08:17:23.448Z,0.83
2018-07-15T08:19:58.155Z,1.12
2018-07-15T08:22:32.898Z,1.00
2018-07-15T08:25:08.220Z,1.12
2018-07-15T08:27:43.076Z,0.72
2018-07-15T08:30:22.787Z,0.88
2018-07-15T08:32:57.603Z,1.25
2018-07-15T08:35:32.338Z,1.25
2018-07-15T08:38:08.134Z,1.20
2018-07-15T08:40:42.626Z,1.27
2018-07-15T08:43:17.201Z,1.10
2018-07-15T08:45:52.682Z,1.50
2018-07-15T08:48:28.496Z,1.40
2018-07-15T08:51:03.841Z,1.50
2018-07-15T08:53:41.534Z,1.30
2018-07-15T08:56:22.731Z,1.45
2018-07-15T08:58:57.501Z,1.35
2018-07-15T09:01:34.131Z,1.50
2018-07-15T09:04:09.202Z,1.50
2018-07-15T09:12:00.984Z,1.80
2018-07-15T09:14:36.001Z,1.60
2018-07-15T09:17:14.681Z,1.87
2018-07-15T09:19:49.691Z,1.67
2018-07-15T09:22:26.356Z,2.00
2018-07-15T09:25:02.492Z,1.77
2018-07-15T09:27:40.304Z,1.72
2018-07-15T09:30:20.414Z,1.75
2018-07-15T09:32:57.505Z,2.37
2018-07-15T09:35:31.794Z,2.10
2018-07-15T09:38:15.126Z,2.80
2018-07-15T09:40:55.481Z,2.25
2018-07-15T09:43:31.476Z,2.47
2018-07-15T09:46:10.900Z,2.52
2018-07-15T09:48:53.144Z,2.30
2018-07-15T09:51:31.311Z,2.80
2018-07-15T09:54:07.592Z,2.83
2018-07-15T09:56:44.020Z,2.60
2018-07-15T09:59:29.615Z,2.10
2018-07-15T10:02:05.830Z,2.60
2018-07-15T10:04:43.257Z,2.00
2018-07-15T10:07:22.868Z,1.90
2018-07-15T10:10:02.404Z,1.55
2018-07-15T10:12:43.284Z,1.90
2018-07-15T10:15:22.566Z,2.30
2018-07-15T10:18:01.189Z,2.70
2018-07-15T10:20:41.176Z,2.25
2018-07-15T10:23:18.417Z,5.12
2018-07-15T10:25:53.165Z,5.30
2018-07-15T10:28:31.221Z,6.43
2018-07-15T10:31:05.197Z,6.90
2018-07-15T10:33:44.996Z,7.17
2018-07-15T10:36:25.327Z,7.13
2018-07-15T10:39:04.738Z,6.73
2018-07-15T10:41:43.823Z,6.80
2018-07-15T10:44:22.038Z,6.83
2018-07-15T10:46:57.182Z,7.17
2018-07-15T10:49:33.957Z,6.70
2018-07-15T10:52:08.441Z,6.60
2018-07-15T10:54:50.748Z,6.40
2018-07-15T10:57:24.931Z,6.50
2018-07-15T11:00:02.779Z,6.37
2018-07-15T11:02:37.407Z,6.57
2018-07-15T11:05:14.499Z,6.90
2018-07-15T11:07:55.759Z,6.45
2018-07-15T11:10:33.941Z,7.15
2018-07-15T11:13:12.219Z,5.92
2018-07-15T11:15:48.468Z,6.30
2018-07-15T11:18:22.968Z,6.70
2018-07-15T11:21:00.788Z,5.95
2018-07-15T11:23:38.752Z,5.42
2018-07-15T11:26:13.304Z,6.10
2018-07-15T11:28:48.446Z,5.25
2018-07-15T11:31:23.162Z,6.25
2018-07-15T11:33:58.229Z,5.58
2018-07-15T11:36:33.015Z,5.87
2018-07-15T11:39:08.805Z,5.00
2018-07-15T11:41:43.626Z,4.80
2018-07-15T11:44:19.401Z,5.20
2018-07-15T11:46:54.098Z,5.22
2018-07-15T11:49:28.898Z,4.65
2018-07-15T11:52:04.714Z,4.33
2018-07-15T11:54:40.610Z,4.00
2018-07-15T11:57:15.524Z,5.30
2018-07-15T11:59:50.270Z,5.65
2018-07-15T12:02:25.009Z,4.95
2018-07-15T12:05:00.849Z,5.33
2018-07-15T12:07:36.860Z,4.92
2018-07-15T12:10:11.827Z,4.50
2018-07-15T12:12:46.529Z,4.92
2018-07-15T12:15:20.793Z,5.22
2018-07-15T12:17:55.522Z,4.50
2018-07-15T12:20:31.309Z,4.78
2018-07-15T12:23:06.323Z,4.20
2018-07-15T12:25:42.146Z,4.35
2018-07-15T12:28:16.960Z,3.52
2018-07-15T12:30:51.858Z,3.87
2018-07-15T12:33:26.120Z,3.60
2018-07-15T12:36:08.302Z,3.40
2018-07-15T12:39:09.231Z,3.67
2018-07-15T12:45:16.170Z,3.02
2018-07-15T12:47:52.119Z,3.33
2018-07-15T12:50:26.837Z,2.80
2018-07-15T12:53:01.629Z,3.17
2018-07-15T12:55:36.446Z,3.58
2018-07-15T12:58:11.260Z,3.10
2018-07-15T13:00:45.996Z,3.12
2018-07-15T13:04:01.618Z,3.00
2018-07-15T13:06:58.038Z,3.02
2018-07-15T13:16:07.317Z,3.00
2018-07-15T13:18:57.866Z,2.90
2018-07-15T13:25:01.591Z,3.08
2018-07-15T13:27:51.697Z,3.25
2018-07-15T13:36:49.794Z,2.67
2018-07-15T13:39:37.515Z,2.80
2018-07-15T13:42:27.090Z,2.83
2018-07-15T13:45:02.555Z,2.98
2018-07-15T13:47:37.322Z,3.12
2018-07-15T13:50:12.047Z,3.50
2018-07-15T13:52:46.803Z,3.27
2018-07-15T13:55:21.547Z,3.20
2018-07-15T13:57:56.308Z,2.80
2018-07-15T14:00:31.052Z,2.90
2018-07-15T14:03:05.898Z,3.20
2018-07-15T14:05:40.627Z,3.55
2018-07-15T14:08:15.355Z,3.25
2018-07-15T14:10:51.048Z,3.95
2018-07-15T14:13:25.820Z,3.08
2018-07-15T14:16:00.547Z,3.37
2018-07-15T14:18:36.315Z,2.92
2018-07-15T14:21:11.159Z,3.47
2018-07-15T14:23:45.889Z,2.83
2018-07-15T14:26:21.648Z,2.75
2018-07-15T14:28:57.368Z,3.12
2018-07-15T14:31:32.044Z,2.72
2018-07-15T14:34:07.905Z,2.98
2018-07-15T14:36:42.626Z,3.10
2018-07-15T14:39:18.632Z,2.87
2018-07-15T14:41:53.384Z,2.60
2018-07-15T14:44:28.147Z,2.87
2018-07-15T14:47:02.969Z,2.90
2018-07-15T14:49:37.718Z,3.05
2018-07-15T14:52:12.477Z,3.05
2018-07-15T14:54:47.249Z,2.60
2018-07-15T14:57:21.968Z,2.85
2018-07-15T14:59:57.690Z,2.60
2018-07-15T15:02:33.450Z,3.30
2018-07-15T15:05:08.734Z,2.95
2018-07-15T15:07:43.463Z,2.67
2018-07-15T15:10:18.212Z,2.85
2018-07-15T15:12:52.948Z,2.72
2018-07-15T15:15:27.717Z,3.27
2018-07-15T15:18:03.493Z,3.30
2018-07-15T15:20:38.262Z,2.90
2018-07-15T15:23:13.525Z,2.98
2018-07-15T15:25:48.340Z,3.10
2018-07-15T15:28:24.215Z,3.00
2018-07-15T15:31:00.042Z,2.90
2018-07-15T15:33:34.758Z,3.10
2018-07-15T15:36:10.484Z,3.33
2018-07-15T15:38:45.234Z,2.70
2018-07-15T15:41:20.051Z,3.47
2018-07-15T15:43:54.759Z,2.90
2018-07-15T15:46:29.524Z,3.00
2018-07-15T15:49:04.298Z,3.05
2018-07-15T15:51:39.057Z,3.30
2018-07-15T15:54:22.372Z,2.77
2018-07-15T15:57:11.137Z,3.35
2018-07-15T15:59:51.622Z,3.08
2018-07-15T16:02:26.509Z,3.05
2018-07-15T16:05:14.152Z,2.92
2018-07-15T16:08:03.754Z,3.42
2018-07-15T16:10:38.058Z,3.02
2018-07-15T16:16:46.743Z,2.65
2018-07-15T16:19:21.764Z,3.08
2018-07-15T16:21:56.456Z,3.00
2018-07-15T16:24:31.665Z,3.17
2018-07-15T16:27:06.963Z,3.50
2018-07-15T16:29:42.807Z,3.20
2018-07-15T16:32:17.506Z,3.10
2018-07-15T16:34:52.888Z,3.42
2018-07-15T16:37:27.601Z,3.37
2018-07-15T16:40:02.392Z,3.27
2018-07-15T16:42:37.069Z,2.80
2018-07-15T16:45:11.851Z,3.25
2018-07-15T16:47:46.535Z,3.42
2018-07-15T16:50:29.667Z,3.47
2018-07-15T16:53:04.771Z,3.10
2018-07-15T16:55:56.301Z,3.05
2018-07-15T16:58:50.393Z,3.20
2018-07-15T17:01:25.247Z,3.55
2018-07-15T17:04:01.005Z,3.10
2018-07-15T17:06:35.724Z,3.05
2018-07-15T17:09:10.504Z,3.30
2018-07-15T17:11:45.209Z,3.08
2018-07-15T17:14:20.026Z,3.22
2018-07-15T17:16:54.887Z,3.15
2018-07-15T17:19:29.621Z,3.30
2018-07-15T17:22:04.393Z,3.22
2018-07-15T17:24:39.135Z,3.22
2018-07-15T17:27:13.373Z,3.00
2018-07-15T17:29:48.141Z,2.85
2018-07-15T17:32:22.897Z,3.17
2018-07-15T17:34:58.339Z,3.17
2018-07-15T17:37:34.193Z,3.40
2018-07-15T17:40:08.936Z,3.00
2018-07-15T17:42:43.641Z,3.40
2018-07-15T17:45:18.631Z,2.85
2018-07-15T17:47:53.455Z,3.17
2018-07-15T17:50:28.175Z,2.98
2018-07-15T17:53:02.917Z,2.50
2018-07-15T17:55:37.630Z,3.08
2018-07-15T17:58:12.459Z,2.62
2018-07-15T18:00:47.178Z,2.90
2018-07-15T18:03:22.908Z,2.80
2018-07-15T18:05:58.656Z,2.85
2018-07-15T18:08:33.468Z,2.83
2018-07-15T18:11:08.200Z,2.95
2018-07-15T18:13:42.979Z,3.08
2018-07-15T18:16:17.741Z,2.67
2018-07-15T18:18:52.544Z,2.67
2018-07-15T18:21:28.328Z,3.20
2018-07-15T18:24:03.253Z,2.58
2018-07-15T18:26:37.492Z,2.60
2018-07-15T18:29:12.221Z,2.83
2018-07-15T18:31:46.936Z,2.50
2018-07-15T18:34:21.712Z,2.95
2018-07-15T18:36:56.456Z,3.05
2018-07-15T18:39:31.180Z,2.70
2018-07-15T18:42:06.016Z,2.83
2018-07-15T18:44:40.777Z,2.58
2018-07-15T18:47:15.474Z,2.90
2018-07-15T18:49:49.769Z,2.90
2018-07-15T18:52:24.676Z,2.85
2018-07-15T18:54:59.418Z,3.10
2018-07-15T18:57:34.180Z,2.55
2018-07-15T19:00:08.816Z,2.62
2018-07-15T19:02:43.544Z,2.87
2018-07-15T19:05:18.310Z,2.70
2018-07-15T19:07:54.097Z,2.90
2018-07-15T19:10:28.808Z,2.90
2018-07-15T19:13:03.510Z,3.15
2018-07-15T19:15:39.287Z,2.80
2018-07-15T19:18:14.177Z,3.20
2018-07-15T19:20:48.900Z,3.30
2018-07-15T19:23:23.662Z,3.58
2018-07-15T19:25:58.404Z,3.30
2018-07-15T19:28:33.160Z,3.33
2018-07-15T19:31:07.881Z,3.45
2018-07-15T19:33:42.955Z,3.47
2018-07-15T19:36:17.873Z,3.00
2018-07-15T19:38:53.611Z,3.58
2018-07-15T19:41:28.479Z,3.17
2018-07-15T19:44:03.219Z,3.37
2018-07-15T19:46:37.997Z,3.87
2018-07-15T19:49:12.717Z,3.50
2018-07-15T19:51:48.484Z,3.80
2018-07-15T19:54:24.272Z,3.75
2018-07-15T19:56:59.082Z,10.38
2018-07-15T19:59:34.988Z,4.12
2018-07-15T20:02:10.745Z,3.90
2018-07-15T20:04:45.487Z,3.90
2018-07-15T20:07:20.273Z,3.72
2018-07-15T20:09:54.493Z,4.30
2018-07-15T20:12:28.734Z,3.87
2018-07-15T20:15:03.495Z,4.20
2018-07-15T20:17:38.279Z,4.15
2018-07-15T20:20:13.313Z,4.20
2018-07-15T20:22:49.057Z,4.70
2018-07-15T20:25:23.787Z,3.92
2018-07-15T20:27:59.521Z,3.70
2018-07-15T20:30:33.782Z,4.35
2018-07-15T20:33:08.564Z,4.90
2018-07-15T20:35:42.776Z,4.28
2018-07-15T20:38:18.548Z,4.92
2018-07-15T20:40:53.269Z,4.70
2018-07-15T20:43:29.040Z,4.70
2018-07-15T20:46:04.760Z,5.00
2018-07-15T20:48:39.031Z,4.65
2018-07-15T20:51:13.728Z,4.83
2018-07-15T20:53:48.500Z,5.00
2018-07-15T20:56:24.303Z,5.22
2018-07-15T20:58:58.700Z,5.08
2018-07-15T21:01:34.475Z,5.33
2018-07-15T21:04:09.221Z,5.25
2018-07-15T21:06:43.928Z,4.70
2018-07-15T21:09:18.666Z,5.33
2018-07-15T21:11:53.385Z,5.58
2018-07-15T21:14:28.096Z,5.85
2018-07-15T21:17:02.831Z,5.17
2018-07-15T21:19:37.574Z,5.65
2018-07-15T21:22:12.340Z,5.55
2018-07-15T21:24:46.545Z,5.03
2018-07-15T21:27:21.312Z,5.58
2018-07-15T21:29:56.024Z,5.58
2018-07-15T21:32:31.752Z,5.25
2018-07-15T21:35:06.484Z,5.12
2018-07-15T21:37:40.740Z,5.90
2018-07-15T21:40:15.447Z,5.20
2018-07-15T21:42:50.228Z,4.75
2018-07-15T21:45:25.914Z,5.37
2018-07-15T21:48:00.639Z,4.97
2018-07-15T21:50:35.475Z,5.70
2018-07-15T21:53:10.244Z,6.20
2018-07-15T21:55:44.951Z,5.62
2018-07-15T21:58:19.701Z,5.65
2018-07-15T22:00:55.500Z,6.12
2018-07-15T22:03:30.244Z,5.80
2018-07-15T22:06:04.960Z,5.90
2018-07-15T22:09:53.205Z,6.22
2018-07-15T22:12:27.480Z,6.40
2018-07-15T22:15:02.157Z,6.08
2018-07-15T22:17:49.092Z,5.72
2018-07-15T22:20:43.122Z,6.62
2018-07-15T22:23:17.941Z,6.35
2018-07-15T22:25:53.814Z,6.40
2018-07-15T22:28:28.724Z,7.45
2018-07-15T22:31:03.471Z,7.17
2018-07-15T22:33:38.453Z,6.17
2018-07-15T22:36:13.215Z,7.15
2018-07-15T22:38:47.579Z,8.00
2018-07-15T22:41:22.352Z,7.75
2018-07-15T22:43:57.231Z,7.62
2018-07-15T22:46:33.071Z,7.55
2018-07-15T22:49:08.934Z,8.00
2018-07-15T22:51:44.750Z,8.28
2018-07-15T22:54:19.569Z,7.33
2018-07-15T22:56:53.890Z,7.08
2018-07-15T22:59:29.108Z,7.55
2018-07-15T23:02:04.992Z,6.70
2018-07-15T23:05:55.208Z,7.60
2018-07-15T23:08:32.127Z,7.20
2018-07-15T23:11:06.448Z,6.93
2018-07-15T23:13:41.285Z,6.97
2018-07-15T23:16:16.335Z,6.20
2018-07-15T23:18:52.270Z,7.60
2018-07-15T23:21:28.224Z,7.30
2018-07-15T23:24:03.026Z,6.33
2018-07-15T23:26:37.873Z,7.12
2018-07-15T23:29:12.645Z,7.15
2018-07-15T23:31:49.224Z,7.00
2018-07-15T23:34:25.052Z,7.25
2018-07-15T23:36:59.823Z,7.33
2018-07-15T23:39:34.581Z,6.70
2018-07-15T23:42:08.784Z,6.77
2018-07-15T23:44:44.005Z,6.65
2018-07-15T23:47:18.219Z,6.72
2018-07-15T23:49:52.504Z,6.25
2018-07-15T23:52:27.057Z,6.87
2018-07-15T23:55:01.800Z,7.58
2018-07-15T23:57:37.876Z,7.70
